Time,TemperatureF,DewpointF,PressureIn,WindDirection,WindDirectionDegrees,WindSpeedMPH,WindSpeedGustMPH,Humidity,HourlyPrecipIn,Conditions,Clouds,dailyrainin,SoftwareType,DateUTC
2013-06-05 00:02:00,53.0,50.0,-100.00,SE,131,4.0,6.0,90,-99.99,,,-99.99,,2013-06-05 07:02:00,
2013-06-05 00:12:00,53.0,49.0,-100.00,South,176,2.0,4.0,87,-99.99,,,-99.99,,2013-06-05 07:12:00,
2013-06-05 00:22:00,53.0,47.0,-100.00,South,169,0.0,2.0,81,-99.99,,,-99.99,,2013-06-05 07:22:00,
2013-06-05 00:32:00,53.0,46.0,-100.00,South,191,1.0,2.0,77,-99.99,,,-99.99,,2013-06-05 07:32:00,
2013-06-05 00:42:00,53.0,44.0,-100.00,WSW,242,0.0,1.0,72,-99.99,,,-99.99,,2013-06-05 07:42:00,
2013-06-05 00:52:00,53.0,43.0,-100.00,SE,134,1.0,4.0,70,-99.99,,,-99.99,,2013-06-05 07:52:00,
2013-06-05 01:02:00,54.0,43.0,-100.00,ESE,116,1.0,2.0,66,-99.99,,,-99.99,,2013-06-05 08:02:00,
2013-06-05 01:12:00,55.0,42.0,-100.00,ESE,110,2.0,3.0,62,-99.99,,,-99.99,,2013-06-05 08:12:00,
2013-06-05 01:22:00,56.0,44.0,-100.00,South,176,1.0,2.0,63,-99.99,,,-99.99,,2013-06-05 08:22:00,
2013-06-05 01:32:00,53.0,42.0,-100.00,SSW,197,0.0,2.0,67,-99.99,,,-99.99,,2013-06-05 08:32:00,
2013-06-05 01:42:00,54.0,42.0,-100.00,WSW,238,1.0,4.0,63,-99.99,,,-99.99,,2013-06-05 08:42:00,
2013-06-05 01:52:00,53.0,40.0,-100.00,East,91,2.0,4.0,62,-99.99,,,-99.99,,2013-06-05 08:52:00,
2013-06-05 02:02:00,54.0,44.0,-100.00,ENE,77,2.0,3.0,68,-99.99,,,-99.99,,2013-06-05 09:02:00,
2013-06-05 02:12:00,51.0,42.0,-100.00,ENE,67,1.0,3.0,72,-99.99,,,-99.99,,2013-06-05 09:12:00,
2013-06-05 02:22:00,51.0,42.0,-100.00,ENE,67,0.0,1.0,71,-99.99,,,-99.99,,2013-06-05 09:22:00,
2013-06-05 02:32:00,52.0,43.0,-100.00,East,92,1.0,1.0,70,-99.99,,,-99.99,,2013-06-05 09:32:00,
2013-06-05 02:42:00,54.0,42.0,-100.00,ESE,114,1.0,2.0,64,-99.99,,,-99.99,,2013-06-05 09:42:00,
2013-06-05 02:52:00,54.0,41.0,-100.00,ESE,121,1.0,3.0,62,-99.99,,,-99.99,,2013-06-05 09:52:00,
2013-06-05 03:02:00,54.0,40.0,-100.00,South,170,1.0,3.0,60,-99.99,,,-99.99,,2013-06-05 10:02:00,
2013-06-05 03:12:00,54.0,41.0,-100.00,SSE,167,0.0,1.0,62,-99.99,,,-99.99,,2013-06-05 10:12:00,
2013-06-05 03:22:00,53.0,41.0,-100.00,North,-999,0.0,0.0,64,-99.99,,,-99.99,,2013-06-05 10:22:00,
2013-06-05 03:33:00,52.0,41.0,-100.00,ENE,72,0.0,1.0,66,-99.99,,,-99.99,,2013-06-05 10:33:00,
2013-06-05 03:42:00,52.0,42.0,-100.00,East,87,0.0,1.0,68,-99.99,,,-99.99,,2013-06-05 10:42:00,
2013-06-05 03:52:00,53.0,43.0,-100.00,SSE,147,0.0,1.0,68,-99.99,,,-99.99,,2013-06-05 10:52:00,
2013-06-05 04:02:00,53.0,42.0,-100.00,SE,127,1.0,2.0,65,-99.99,,,-99.99,,2013-06-05 11:02:00,
2013-06-05 04:12:00,53.0,41.0,-100.00,SE,129,1.0,2.0,64,-99.99,,,-99.99,,2013-06-05 11:12:00,
2013-06-05 04:21:00,53.0,42.0,-100.00,SE,139,1.0,2.0,65,-99.99,,,-99.99,,2013-06-05 11:21:00,
2013-06-05 04:32:00,52.0,41.0,-100.00,SE,133,2.0,3.0,66,-99.99,,,-99.99,,2013-06-05 11:32:00,
2013-06-05 04:42:00,53.0,41.0,-100.00,ESE,120,2.0,3.0,63,-99.99,,,-99.99,,2013-06-05 11:42:00,
2013-06-05 04:52:00,54.0,41.0,-100.00,SE,139,1.0,3.0,61,-99.99,,,-99.99,,2013-06-05 11:52:00,
2013-06-05 05:02:00,53.0,39.0,-100.00,ESE,109,1.0,2.0,58,-99.99,,,-99.99,,2013-06-05 12:02:00,
2013-06-05 05:12:00,51.0,38.0,-100.00,East,94,1.0,2.0,60,-99.99,,,-99.99,,2013-06-05 12:12:00,
2013-06-05 05:22:00,52.0,38.0,-100.00,ESE,108,1.0,3.0,58,-99.99,,,-99.99,,2013-06-05 12:22:00,
2013-06-05 05:32:00,55.0,37.0,-100.00,ESE,121,2.0,4.0,51,-99.99,,,-99.99,,2013-06-05 12:32:00,
2013-06-05 05:43:00,53.0,37.0,-100.00,SE,130,1.0,3.0,54,-99.99,,,-99.99,,2013-06-05 12:43:00,
2013-06-05 05:52:00,56.0,37.0,-100.00,SE,135,1.0,3.0,49,-99.99,,,-99.99,,2013-06-05 12:52:00,
2013-06-05 06:02:00,54.0,34.0,-100.00,East,88,2.0,4.0,47,-99.99,,,-99.99,,2013-06-05 13:02:00,
2013-06-05 06:12:00,53.0,33.0,-100.00,SSW,208,0.0,1.0,47,-99.99,,,-99.99,,2013-06-05 13:12:00,
2013-06-05 06:22:00,54.0,28.0,-100.00,ESE,105,1.0,3.0,37,-99.99,,,-99.99,,2013-06-05 13:22:00,
2013-06-05 06:32:00,57.0,24.0,-100.00,ESE,109,2.0,3.0,28,-99.99,,,-99.99,,2013-06-05 13:32:00,
2013-06-05 06:42:00,57.0,27.0,-100.00,South,180,0.0,2.0,31,-99.99,,,-99.99,,2013-06-05 13:42:00,
2013-06-05 06:52:00,57.0,30.0,-100.00,NE,54,1.0,3.0,35,-99.99,,,-99.99,,2013-06-05 13:52:00,
2013-06-05 07:12:00,59.0,34.0,-100.00,NE,53,1.0,2.0,39,-99.99,,,-99.99,,2013-06-05 14:12:00,
2013-06-05 07:22:00,61.0,34.0,-100.00,NE,34,0.0,1.0,36,-99.99,,,-99.99,,2013-06-05 14:22:00,
2013-06-05 07:32:00,62.0,33.0,-100.00,NNE,12,1.0,2.0,34,-99.99,,,-99.99,,2013-06-05 14:32:00,
2013-06-05 07:42:00,63.0,33.0,-100.00,NNW,333,0.0,1.0,33,-99.99,,,-99.99,,2013-06-05 14:42:00,
2013-06-05 07:52:00,63.0,33.0,-100.00,NNW,333,0.0,1.0,33,-99.99,,,-99.99,,2013-06-05 14:52:00,
2013-06-05 08:02:00,64.0,31.0,-100.00,NW,322,1.0,2.0,29,-99.99,,,-99.99,,2013-06-05 15:02:00,
2013-06-05 08:12:00,65.0,32.0,-100.00,NW,311,2.0,4.0,29,-99.99,,,-99.99,,2013-06-05 15:12:00,
2013-06-05 08:22:00,66.0,32.0,-100.00,West,277,2.0,5.0,28,-99.99,,,-99.99,,2013-06-05 15:22:00,
2013-06-05 08:33:00,66.0,30.0,-100.00,WSW,254,3.0,7.0,26,-99.99,,,-99.99,,2013-06-05 15:33:00,
2013-06-05 08:42:00,67.0,31.0,-100.00,WSW,254,4.0,6.0,26,-99.99,,,-99.99,,2013-06-05 15:42:00,
2013-06-05 08:53:00,68.0,30.0,-100.00,West,271,3.0,7.0,24,-99.99,,,-99.99,,2013-06-05 15:53:00,
2013-06-05 09:03:00,69.0,27.0,-100.00,West,270,3.0,6.0,21,-99.99,,,-99.99,,2013-06-05 16:03:00,
2013-06-05 09:12:00,71.0,23.0,-100.00,West,259,4.0,8.0,16,-99.99,,,-99.99,,2013-06-05 16:12:00,
2013-06-05 09:22:00,71.0,23.0,-100.00,West,274,5.0,11.0,16,-99.99,,,-99.99,,2013-06-05 16:22:00,
2013-06-05 09:32:00,71.0,25.0,-100.00,WNW,282,6.0,11.0,18,-99.99,,,-99.99,,2013-06-05 16:32:00,
2013-06-05 09:42:00,72.0,27.0,-100.00,West,271,6.0,11.0,19,-99.99,,,-99.99,,2013-06-05 16:42:00,
2013-06-05 09:53:00,72.0,30.0,-100.00,West,273,5.0,10.0,21,-99.99,,,-99.99,,2013-06-05 16:53:00,
2013-06-05 10:02:00,73.0,32.0,-100.00,West,269,5.0,10.0,22,-99.99,,,-99.99,,2013-06-05 17:02:00,
2013-06-05 10:12:00,73.0,33.0,-100.00,West,278,5.0,9.0,23,-99.99,,,-99.99,,2013-06-05 17:12:00,
2013-06-05 10:22:00,73.0,32.0,-100.00,WNW,284,6.0,10.0,22,-99.99,,,-99.99,,2013-06-05 17:22:00,
2013-06-05 10:32:00,74.0,32.0,-100.00,WNW,283,5.0,10.0,21,-99.99,,,-99.99,,2013-06-05 17:32:00,
2013-06-05 10:42:00,75.0,30.0,-100.00,West,280,6.0,13.0,19,-99.99,,,-99.99,,2013-06-05 17:42:00,
2013-06-05 10:52:00,75.0,30.0,-100.00,WNW,293,5.0,12.0,19,-99.99,,,-99.99,,2013-06-05 17:52:00,
2013-06-05 11:02:00,76.0,28.0,-100.00,West,274,7.0,12.0,17,-99.99,,,-99.99,,2013-06-05 18:02:00,
2013-06-05 11:12:00,77.0,29.0,-100.00,West,276,5.0,9.0,17,-99.99,,,-99.99,,2013-06-05 18:12:00,
2013-06-05 11:22:00,78.0,30.0,-100.00,West,281,5.0,11.0,17,-99.99,,,-99.99,,2013-06-05 18:22:00,
2013-06-05 11:32:00,78.0,28.0,-100.00,West,278,7.0,11.0,16,-99.99,,,-99.99,,2013-06-05 18:32:00,
2013-06-05 11:42:00,78.0,25.0,-100.00,West,277,7.0,14.0,14,-99.99,,,-99.99,,2013-06-05 18:42:00,
2013-06-05 11:52:00,78.0,25.0,-100.00,West,277,7.0,14.0,14,-99.99,,,-99.99,,2013-06-05 18:52:00,
2013-06-05 12:02:00,79.0,26.0,-100.00,West,276,6.0,11.0,14,-99.99,,,-99.99,,2013-06-05 19:02:00,
2013-06-05 12:12:00,79.0,26.0,-100.00,West,265,7.0,14.0,14,-99.99,,,-99.99,,2013-06-05 19:12:00,
2013-06-05 12:22:00,79.0,29.0,-100.00,West,278,6.0,12.0,16,-99.99,,,-99.99,,2013-06-05 19:22:00,
2013-06-05 12:32:00,80.0,34.0,-100.00,West,277,5.0,13.0,19,-99.99,,,-99.99,,2013-06-05 19:32:00,
2013-06-05 12:42:00,80.0,34.0,-100.00,West,279,7.0,14.0,19,-99.99,,,-99.99,,2013-06-05 19:42:00,
2013-06-05 12:52:00,80.0,34.0,-100.00,WSW,251,7.0,16.0,19,-99.99,,,-99.99,,2013-06-05 19:52:00,
2013-06-05 13:02:00,81.0,32.0,-100.00,West,265,6.0,13.0,17,-99.99,,,-99.99,,2013-06-05 20:02:00,
2013-06-05 13:12:00,81.0,29.0,-100.00,WSW,253,6.0,13.0,15,-99.99,,,-99.99,,2013-06-05 20:12:00,
2013-06-05 13:22:00,81.0,29.0,-100.00,West,261,7.0,14.0,15,-99.99,,,-99.99,,2013-06-05 20:22:00,
2013-06-05 13:32:00,82.0,30.0,-100.00,West,261,7.0,15.0,15,-99.99,,,-99.99,,2013-06-05 20:32:00,
2013-06-05 13:42:00,83.0,32.0,-100.00,WSW,250,7.0,13.0,16,-99.99,,,-99.99,,2013-06-05 20:42:00,
2013-06-05 13:52:00,82.0,34.0,-100.00,WSW,256,7.0,13.0,18,-99.99,,,-99.99,,2013-06-05 20:52:00,
2013-06-05 14:02:00,83.0,36.0,-100.00,West,261,7.0,13.0,19,-99.99,,,-99.99,,2013-06-05 21:02:00,
2013-06-05 14:12:00,83.0,38.0,-100.00,West,270,6.0,12.0,20,-99.99,,,-99.99,,2013-06-05 21:12:00,
2013-06-05 14:22:00,83.0,38.0,-100.00,West,279,8.0,16.0,20,-99.99,,,-99.99,,2013-06-05 21:22:00,
2013-06-05 14:33:00,83.0,38.0,-100.00,West,269,6.0,14.0,20,-99.99,,,-99.99,,2013-06-05 21:33:00,
2013-06-05 14:43:00,83.0,38.0,-100.00,West,268,7.0,13.0,20,-99.99,,,-99.99,,2013-06-05 21:43:00,
2013-06-05 14:53:00,84.0,39.0,-100.00,WSW,246,6.0,11.0,20,-99.99,,,-99.99,,2013-06-05 21:53:00,
2013-06-05 15:02:00,84.0,39.0,-100.00,West,280,6.0,13.0,20,-99.99,,,-99.99,,2013-06-05 22:02:00,
2013-06-05 15:12:00,84.0,39.0,-100.00,West,269,7.0,12.0,20,-99.99,,,-99.99,,2013-06-05 22:12:00,
2013-06-05 15:22:00,85.0,39.0,-100.00,West,271,7.0,14.0,20,-99.99,,,-99.99,,2013-06-05 22:22:00,
2013-06-05 15:32:00,85.0,42.0,-100.00,West,265,7.0,13.0,22,-99.99,,,-99.99,,2013-06-05 22:32:00,
2013-06-05 15:42:00,85.0,44.0,-100.00,WSW,258,8.0,14.0,24,-99.99,,,-99.99,,2013-06-05 22:42:00,
2013-06-05 15:52:00,84.0,45.0,-100.00,WSW,256,9.0,15.0,26,-99.99,,,-99.99,,2013-06-05 22:52:00,
2013-06-05 16:02:00,83.0,45.0,-100.00,WSW,254,9.0,16.0,26,-99.99,,,-99.99,,2013-06-05 23:02:00,
2013-06-05 16:12:00,83.0,46.0,-100.00,WSW,245,8.0,16.0,27,-99.99,,,-99.99,,2013-06-05 23:12:00,
2013-06-05 16:21:00,83.0,46.0,-100.00,WSW,254,8.0,15.0,27,-99.99,,,-99.99,,2013-06-05 23:21:00,
2013-06-05 16:32:00,82.0,45.0,-100.00,WSW,242,9.0,19.0,27,-99.99,,,-99.99,,2013-06-05 23:32:00,
2013-06-05 16:42:00,82.0,46.0,-100.00,WSW,245,10.0,16.0,28,-99.99,,,-99.99,,2013-06-05 23:42:00,
2013-06-05 16:52:00,82.0,46.0,-100.00,WSW,245,10.0,16.0,28,-99.99,,,-99.99,,2013-06-05 23:52:00,
2013-06-05 17:02:00,82.0,47.0,-100.00,WSW,246,8.0,17.0,30,-99.99,,,-99.99,,2013-06-06 00:02:00,
2013-06-05 17:12:00,81.0,47.0,-100.00,WSW,247,8.0,14.0,31,-99.99,,,-99.99,,2013-06-06 00:12:00,
2013-06-05 17:22:00,80.0,46.0,-100.00,WSW,246,9.0,16.0,30,-99.99,,,-99.99,,2013-06-06 00:22:00,
2013-06-05 17:32:00,81.0,47.0,-100.00,WSW,252,7.0,14.0,31,-99.99,,,-99.99,,2013-06-06 00:32:00,
2013-06-05 17:42:00,79.0,47.0,-100.00,WSW,251,9.0,19.0,33,-99.99,,,-99.99,,2013-06-06 00:42:00,
2013-06-05 17:52:00,79.0,47.0,-100.00,WSW,251,9.0,19.0,33,-99.99,,,-99.99,,2013-06-06 00:52:00,
2013-06-05 18:02:00,78.0,47.0,-100.00,WSW,239,9.0,16.0,34,-99.99,,,-99.99,,2013-06-06 01:02:00,
2013-06-05 18:12:00,78.0,47.0,-100.00,WSW,241,8.0,16.0,34,-99.99,,,-99.99,,2013-06-06 01:12:00,
2013-06-05 18:21:00,77.0,47.0,-100.00,WSW,254,8.0,16.0,35,-99.99,,,-99.99,,2013-06-06 01:21:00,
2013-06-05 18:32:00,76.0,49.0,-100.00,WSW,243,8.0,15.0,38,-99.99,,,-99.99,,2013-06-06 01:32:00,
2013-06-05 18:42:00,76.0,49.0,-100.00,WSW,258,8.0,14.0,39,-99.99,,,-99.99,,2013-06-06 01:42:00,
2013-06-05 18:52:00,76.0,49.0,-100.00,WSW,258,8.0,14.0,39,-99.99,,,-99.99,,2013-06-06 01:52:00,
2013-06-05 19:01:00,75.0,50.0,-100.00,WSW,251,8.0,13.0,41,-99.99,,,-99.99,,2013-06-06 02:01:00,
2013-06-05 19:12:00,74.0,50.0,-100.00,WSW,254,7.0,15.0,43,-99.99,,,-99.99,,2013-06-06 02:12:00,
2013-06-05 19:22:00,72.0,49.0,-100.00,WSW,252,7.0,12.0,45,-99.99,,,-99.99,,2013-06-06 02:22:00,
2013-06-05 19:32:00,72.0,50.0,-100.00,WSW,250,6.0,11.0,46,-99.99,,,-99.99,,2013-06-06 02:32:00,
2013-06-05 19:42:00,72.0,50.0,-100.00,WSW,250,6.0,11.0,46,-99.99,,,-99.99,,2013-06-06 02:42:00,
2013-06-05 19:51:00,72.0,50.0,-100.00,WSW,250,6.0,11.0,46,-99.99,,,-99.99,,2013-06-06 02:51:00,
2013-06-05 20:02:00,69.0,50.0,-100.00,WSW,246,5.0,8.0,51,-99.99,,,-99.99,,2013-06-06 03:02:00,
2013-06-05 20:12:00,68.0,50.0,-100.00,WSW,245,4.0,7.0,53,-99.99,,,-99.99,,2013-06-06 03:12:00,
2013-06-05 20:22:00,67.0,50.0,-100.00,WSW,239,4.0,6.0,55,-99.99,,,-99.99,,2013-06-06 03:22:00,
2013-06-05 20:33:00,66.0,50.0,-100.00,WSW,241,3.0,6.0,57,-99.99,,,-99.99,,2013-06-06 03:33:00,
2013-06-05 20:43:00,65.0,50.0,-100.00,WNW,297,1.0,4.0,59,-99.99,,,-99.99,,2013-06-06 03:43:00,
2013-06-05 20:52:00,64.0,50.0,-100.00,NW,306,1.0,3.0,61,-99.99,,,-99.99,,2013-06-06 03:52:00,
2013-06-05 21:02:00,63.0,50.0,-100.00,WSW,257,1.0,2.0,63,-99.99,,,-99.99,,2013-06-06 04:02:00,
2013-06-05 21:13:00,62.0,50.0,-100.00,SW,231,0.0,2.0,65,-99.99,,,-99.99,,2013-06-06 04:13:00,
2013-06-05 21:22:00,62.0,51.0,-100.00,SW,219,2.0,3.0,66,-99.99,,,-99.99,,2013-06-06 04:22:00,
2013-06-05 21:33:00,61.0,50.0,-100.00,SSW,209,1.0,3.0,68,-99.99,,,-99.99,,2013-06-06 04:33:00,
2013-06-05 21:42:00,60.0,50.0,-100.00,SSE,164,1.0,3.0,69,-99.99,,,-99.99,,2013-06-06 04:42:00,
2013-06-05 21:52:00,60.0,50.0,-100.00,SSE,164,1.0,3.0,69,-99.99,,,-99.99,,2013-06-06 04:52:00,
2013-06-05 22:02:00,59.0,49.0,-100.00,SE,124,2.0,2.0,70,-99.99,,,-99.99,,2013-06-06 05:02:00,
2013-06-05 22:12:00,58.0,50.0,-100.00,SE,135,1.0,2.0,75,-99.99,,,-99.99,,2013-06-06 05:12:00,
2013-06-05 22:22:00,59.0,51.0,-100.00,SE,130,1.0,2.0,74,-99.99,,,-99.99,,2013-06-06 05:22:00,
2013-06-05 22:32:00,58.0,50.0,-100.00,SE,126,0.0,1.0,74,-99.99,,,-99.99,,2013-06-06 05:32:00,
2013-06-05 22:42:00,59.0,51.0,-100.00,SE,132,1.0,2.0,75,-99.99,,,-99.99,,2013-06-06 05:42:00,
2013-06-05 22:52:00,57.0,49.0,-100.00,SE,134,0.0,2.0,75,-99.99,,,-99.99,,2013-06-06 05:52:00,
2013-06-05 23:02:00,58.0,51.0,-100.00,SE,132,1.0,2.0,77,-99.99,,,-99.99,,2013-06-06 06:02:00,
2013-06-05 23:12:00,58.0,51.0,-100.00,SSW,195,1.0,4.0,77,-99.99,,,-99.99,,2013-06-06 06:12:00,
2013-06-05 23:22:00,57.0,50.0,-100.00,East,88,1.0,2.0,76,-99.99,,,-99.99,,2013-06-06 06:22:00,
2013-06-05 23:32:00,56.0,51.0,-100.00,WSW,249,1.0,2.0,82,-99.99,,,-99.99,,2013-06-06 06:32:00,
2013-06-05 23:42:00,55.0,49.0,-100.00,NE,51,2.0,4.0,80,-99.99,,,-99.99,,2013-06-06 06:42:00,
2013-06-05 23:52:00,55.0,50.0,-100.00,ESE,111,0.0,1.0,82,-99.99,,,-99.99,,2013-06-06 06:52:00,